West Dover, VT (05351)

2:52 PM EST on December 20, 2014 (GMT -0500)
Upload Testing | Change Station
CLOSE
Current Station
Personal Weather Station
Location: Dover, VT
Elevation: 1916 ft
Nearby Weather Stations

Elev 1916 ft 42.94 °N, 72.88 °W | Updated 6 seconds ago

Overcast
Overcast
28.3 °F
Feels Like 28 °F
N
0.0
Wind Variable Wind from SSW
Gusts 1.0 mph

Today
High -- | Low -- °F
--% Chance of Precip.
Yesterday
High -- | Low -- °F
Precip. -- in
7:18 AM 4:19 PM
Waning Crescent, 2% visible
Pressure 30.24 in
Visibility 10.0 miles
Clouds Overcast 3000 ft
Windchill 28 °F
Dew Point 22 °F
Humidity 68%
Rainfall 0.00 in
Snow Depth Not available.
UV 0 out of 12
Pollen .10 out of 12
Air Quality Not available.
Flu Activity Not available.
SPECI KDDH 201901Z AUTO 28004KT 10SM OVC030 M02/M08 A3024 RMK AO2 T10221078

More Conditions Fewer Conditions

Pressure 30.24 in
Visibility 10.0 miles
Clouds Overcast 3000 ft
Windchill 28 °F
Dew Point 22 °F
Humidity 68%
Rainfall 0.00 in
Snow Depth Not available.
UV 0 out of 12
Pollen .10 out of 12
Air Quality Not available.
Flu Activity Not available.
SPECI KDDH 201901Z AUTO 28004KT 10SM OVC030 M02/M08 A3024 RMK AO2 T10221078

More Conditions Fewer Conditions

10-Day Weather Forecast

Almanac

Astronomy

Dec. 20, 2014 Rise Set
Actual Time
Civil Twilight
Nautical Twilight
Astronomical Twilight
Moon
Length of Visible Light
Length of Day
Tomorrow will be .
, % of the Moon is Illuminated

Today's Extremes

State Highs State Lows

Community

WunderPhotos

Upload Photos

1,779,257 photos uploaded!

WunderBlogs® & News

Nearby

Air Quality

  Air Quality AQ Index Pollutant
Not available.

Snow Depth

Station Depth Elevation

Earthquake Activity

City Distance Mag. Time & Date
Minimum magnitude displayed is 2.5.

Coastal Water Temperatures

Place Temperature

Nearby Weather Stations